Weather observations for the past three days for
Cumberland, Greater Cumberland Regional Airport
Metric (Imperial)
Date Time (edt) Wind (kph) Vis. (km) Weather Sky Cond. Temperature (ºC) Relative Humidity Wind Chill (°C) Heat Index (°C) Pressure Precipitation (cm)
Air Dwpt 6 hour altimeter (cm) sea level (mb) 1 hr 3 hr 6 hr
Max. Min.
04 12:55 SW 17 G 31 16.09 Partly Cloudy SCT080 22.8 5.6 33% 75.92 0.0
04 12:35 SW 20 16.09 Mostly Cloudy BKN080 22.5 5.1 32% 75.92 0.0
04 12:15 SW 15 G 30 16.09 Overcast BKN080 OVC090 21.9 4.9 33% 75.97 0.0
04 11:55 SW 19 16.09 Overcast OVC080 20.6 4.5 35% 75.97 0.0
04 11:35 S 17 16.09 Partly Cloudy SCT080 20.7 4.1 34% 76 0.0
04 11:15 SW 13 16.09 Fair CLR 19.8 4 35% 76.02 0.0
04 10:55 SE 11 16.09 Fair CLR 19 3.9 37% 76.02 0.0
04 10:35 NE 6 16.09 Fair CLR 16.9 5.3 47% 76.05 0.0
04 10:15 SE 6 16.09 Fair CLR 16 3.9 45% 76.07 0.0
04 09:55 E 6 16.09 Fair CLR 14.2 3.9 50% 76.1 0.0
04 09:35 Calm 16.09 Fair CLR 12.3 3.3 54% 76.12 0.0
04 09:15 Calm 16.09 Fair CLR 11 2.7 57% 76.12 0.0
04 08:55 Calm 16.09 Fair CLR 10 2 58% 76.12 0.0
04 08:35 Calm 16.09 Fair CLR 9.2 2.4 63% 76.15 0.0
04 08:15 N 6 16.09 Partly Cloudy SCT100 8 3.2 72% 76.15 0.0
04 07:55 Calm 16.09 Partly Cloudy SCT090 6.7 3 6.9 3.6 78% 76.17 0.0
04 07:35 Calm 16.09 Mostly Cloudy BKN090 6.5 2.4 75% 76.17 0.0
04 07:15 Calm 16.09 Partly Cloudy SCT120 4.6 2.2 85% 76.17 0.0
04 06:55 NE 6 16.09 Mostly Cloudy SCT100 BKN120 4.5 1.7 82% 76.17 0.0
04 06:35 Calm 16.09 Overcast OVC100 4.2 1.7 84% 76.17 0.0
04 06:15 Calm 16.09 Mostly Cloudy BKN100 4 1.6 85% 76.17 0.0
04 05:55 Calm 16.09 Mostly Cloudy SCT085 BKN110 4.2 1.8 85% 76.2 0.0
04 05:15 Calm 16.09 Partly Cloudy SCT085 4.4 1.9 84% 76.2 0.0
04 04:55 Calm 16.09 Overcast OVC085 4.8 2.5 85% 76.23 0.0
04 04:35 Calm 16.09 Overcast SCT070 OVC085 4.9 2.6 85% 76.23 0.0
04 04:15 Calm 16.09 Overcast SCT070 OVC085 5 1.8 80% 76.23 0.0
04 03:55 NE 6 16.09 Overcast OVC085 4.7 1.9 82% 76.23 0.0
04 03:35 Calm 16.09 Overcast OVC085 4.7 2 83% 76.23 0.0
04 03:15 Calm 16.09 Overcast OVC085 4.6 2.2 85% 76.23 0.0
04 02:55 Calm 16.09 Overcast OVC085 4.5 0.5 76% 76.23 0.0
04 02:35 Calm 16.09 Partly Cloudy SCT085 4.4 0.8 78% 76.25 0.0
04 02:15 Calm 16.09 Partly Cloudy SCT120 4 0.7 79% 76.25 0.0
04 01:55 Calm 16.09 Partly Cloudy SCT120 4.5 0.5 14 4.4 76% 76.25 0.0
04 01:35 Calm 16.09 Partly Cloudy SCT120 5.4 1.2 75% 76.25 0.0
04 01:15 Calm 16.09 Fair CLR 5 1.1 76% 76.25 0.0
04 00:55 NE 6 16.09 Fair CLR 5.2 0.9 74% 76.25 0.0
04 00:35 NE 6 16.09 Fair CLR 6 0.6 69% 76.25 0.0
04 00:15 Calm 16.09 Fair CLR 7.1 1.1 66% 76.28 0.0
03 23:55 Calm 16.09 Fair CLR 6.6 0.2 64% 76.25 0.0
03 23:35 Calm 16.09 Fair CLR 7.2 -0.7 58% 76.25 0.0
03 23:15 Calm 16.09 Fair CLR 7.7 -1.1 54% 76.25 0.0
03 22:55 Calm 16.09 Fair CLR 8.8 -1.5 49% 76.25 0.0
03 22:35 Calm 11.27 Fair CLR 9.1 -1.5 48% 76.25 0.0
03 22:15 S 6 16.09 Fair CLR 9.6 -1.1 48% 76.25 0.0
03 21:55 Calm 16.09 Fair CLR 10.2 -1.7 44% 76.23 0.0
03 21:35 SW 6 16.09 Fair CLR 11.3 -2.4 39% 76.23 0.0
03 21:15 SW 6 16.09 Fair CLR 11 -1.7 41% 76.2 0.0
03 20:55 W 6 16.09 Fair CLR 11.7 -2.1 38% 76.2 0.0
03 20:35 W 9 16.09 Fair CLR 12.7 -2.8 34% 76.2 0.0
03 20:15 SW 9 16.09 Fair CLR 13.3 -3.4 31% 76.17 0.0
03 19:55 W 9 16.09 Fair CLR 13.6 -3.2 16.9 13.6 31% 76.17 0.0
03 19:35 W 17 16.09 Fair CLR 14.6 -3.5 29% 76.17 0.0
03 19:15 W 15 16.09 Fair CLR 15.2 -3.5 28% 76.17 0.0
03 18:55 W 17 16.09 Fair CLR 15.6 -3.3 27% 76.17 0.0
03 18:35 W 13 16.09 Fair CLR 15.9 -3.7 26% 76.17 0.0
03 18:15 NW 13 16.09 Fair CLR 16 -3.4 26% 76.17 0.0
03 17:55 W 13 16.09 Fair CLR 16.3 -3 27% 76.17 0.0
03 17:35 W 24 G 33 16.09 Fair CLR 16.3 -3.6 25% 76.17 0.0
03 17:15 W 28 G 39 16.09 Partly Cloudy SCT080 16.4 -3.2 26% 76.2 0.0
03 16:55 NW 22 G 31 16.09 Partly Cloudy SCT080 15.4 -3.7 27% 76.2 0.0
03 16:35 W 19 G 44 16.09 Partly Cloudy SCT080 16.4 -2.7 27% 76.2 0.0
03 16:15 W 13 G 33 16.09 Partly Cloudy SCT080 16.3 -3.2 26% 76.2 0.0
03 15:55 W 31 16.09 Partly Cloudy SCT080 16.7 -3.1 26% 76.23 0.0
03 15:35 W 22 G 31 16.09 Partly Cloudy SCT080 16.1 -2.1 29% 76.25 0.0
03 15:15 W 20 G 35 16.09 Partly Cloudy SCT080 16 -2.1 29% 76.25 0.0
03 14:35 NW 17 G 41 16.09 Partly Cloudy SCT075 15.5 -1.5 31% 76.3 0.0
03 14:15 W 19 G 30 16.09 Mostly Cloudy BKN075 14.4 -3.4 29% 76.3 0.0
03 13:55 W 9 16.09 Mostly Cloudy BKN075 14.3 -2.5 15.3 6.1 31% 76.3 0.0
03 13:35 W 26 G 35 16.09 Partly Cloudy SCT075 14.9 -2.4 31% 76.33 0.0
03 13:15 N 13 16.09 Fair CLR 13.9 -3.5 30% 76.33 0.0
03 12:55 W 24 G 41 16.09 Fair CLR 13.8 -3.4 30% 76.35 0.0
03 12:35 NW 19 G 37 16.09 Partly Cloudy SCT075 13.4 -3.7 31% 76.38 0.0
03 12:15 W 22 G 39 16.09 Partly Cloudy SCT075 12.8 -4.4 30% 76.38 0.0
03 11:55 W 19 G 30 16.09 Fair CLR 12.3 -4 32% 76.4 0.0
03 11:35 NW 20 G 31 16.09 Partly Cloudy SCT065 11.9 -4 33% 76.43 0.0
03 11:15 NW 22 G 37 16.09 Partly Cloudy SCT065 11.4 -3.1 36% 76.43 0.0
03 10:35 NW 20 G 31 16.09 Mostly Cloudy BKN055 9.3 -4.2 39% 7 76.45 0.0
03 10:15 W 20 G 31 16.09 Partly Cloudy SCT055 10.3 -2.6 41% 76.45 0.0
03 09:55 W 19 16.09 Mostly Cloudy BKN049 9.2 -2.5 44% 7 76.45 0.0
03 09:35 W 19 G 37 16.09 Partly Cloudy SCT049 SCT055 9.1 -2.7 44% 7 76.45 0.0
03 09:15 W 22 G 31 16.09 Partly Cloudy SCT049 8.2 -2.4 48% 5 76.45 0.0
03 08:35 NW 13 16.09 Fair CLR 7.6 -1.4 53% 6 76.45 0.0
03 08:15 N 6 16.09 Fair CLR 7 -1 57% 76.45 0.0
03 07:55 N 7 16.09 Fair CLR 6 -1.6 6.2 2.5 59% 5 76.43 0.0
03 07:35 N 6 16.09 Fair CLR 5.4 -1.7 61% 76.43 0.0
03 07:15 NW 7 16.09 Fair CLR 4.7 -1.6 64% 3 76.43 0.0
03 06:55 NW 6 16.09 Fair CLR 3.7 -1.8 68% 76.4 0.0
03 06:35 Calm 16.09 Fair CLR 3.7 -2.3 65% 76.38 0.0
03 06:15 NW 11 16.09 Fair CLR 3.9 -2.3 64% 1 76.38 0.0
03 05:55 NW 9 16.09 Fair CLR 4.2 -2.2 63% 2 76.35 0.0
03 05:35 NW 6 16.09 Fair CLR 4.1 -2 65% 76.35 0.0
03 05:15 NW 6 16.09 Fair CLR 4.2 -2.1 64% 76.33 0.0
03 04:55 NW 9 16.09 Fair CLR 4.1 -2 65% 2 76.33 0.0
03 04:35 NW 11 16.09 Fair CLR 4.5 -2.2 62% 2 76.33 0.0
03 04:15 NW 13 16.09 Fair CLR 4.5 -2.4 61% 2 76.33 0.0
03 03:55 W 13 16.09 Fair CLR 4.4 -2.3 62% 2 76.33 0.0
03 03:35 NW 9 16.09 Fair CLR 4.8 -2.4 60% 3 76.3 0.0
03 03:15 NW 11 16.09 Partly Cloudy SCT080 5.1 -2.3 59% 3 76.3 0.0
03 02:55 NW 13 16.09 Overcast OVC080 5.4 -2.1 59% 3 76.28 0.0
03 02:35 NW 15 16.09 Overcast OVC080 5.7 -1.9 58% 3 76.28 0.0
03 02:15 NW 17 16.09 Overcast OVC080 5.9 -1.9 58% 3 76.28 0.0
03 01:55 NW 7 16.09 Overcast OVC080 5.7 -1.5 9 5.6 60% 4 76.28 0.0
03 01:35 NW 11 16.09 Overcast OVC080 5.6 -1.4 61% 3 76.28 0.0
03 01:15 N 15 16.09 Overcast OVC080 5.9 -1.7 59% 3 76.28 0.0
03 00:55 NW 15 16.09 Overcast OVC080 6.3 -1.5 58% 4 76.28 0.0
03 00:35 NW 13 16.09 Overcast OVC080 6.4 -0.9 60% 4 76.3 0.0
03 00:15 NW 9 16.09 Overcast OVC080 6.3 -0.7 61% 5 76.3 0.0
02 23:55 N 9 16.09 Overcast OVC080 6.2 -0.7 62% 5 76.3 0.0
02 23:35 NW 9 16.09 Overcast OVC080 6.5 -0.7 60% 5 76.3 0.0
02 23:15 NW 11 16.09 Mostly Cloudy BKN090 6.3 -0.5 62% 4 76.3 0.0
02 22:55 NW 9 16.09 Partly Cloudy SCT090 6.2 -1 60% 5 76.3 0.0
02 22:35 NW 9 16.09 Mostly Cloudy BKN090 6.3 -1 60% 5 76.3 0.0
02 22:15 N 17 16.09 Mostly Cloudy BKN090 6.8 -0.9 58% 4 76.33 0.0
02 21:55 N 15 16.09 Mostly Cloudy BKN090 6.9 -0.9 58% 4 76.33 0.0
02 21:35 N 9 16.09 Mostly Cloudy BKN090 7.1 -1.1 56% 6 76.3 0.0
02 21:15 NW 15 16.09 Mostly Cloudy BKN090 7.6 -1.4 53% 5 76.28 0.0
02 20:55 N 17 16.09 Mostly Cloudy BKN090 7.8 -1.4 53% 5 76.25 0.0
02 20:35 NW 13 16.09 Overcast OVC090 8.3 -1.8 49% 6 76.23 0.0
02 20:15 N 19 G 33 16.09 Overcast OVC080 8.7 -2.1 47% 6 76.2 0.0
02 19:35 NW 20 G 33 16.09 Overcast OVC080 9.5 -1.8 46% 7 76.17 0.0
02 19:15 N 17 16.09 Overcast OVC080 10.2 -1.3 45% 76.15 0.0
02 18:55 N 22 16.09 Overcast OVC080 10.3 -1.4 44% 76.15 0.0
02 18:35 N 22 G 35 16.09 Overcast OVC080 10.7 -1.8 42% 76.12 0.0
02 18:15 NW 22 16.09 Overcast SCT060 OVC080 10.9 -1.6 42% 76.1 0.0
02 17:55 N 19 16.09 Overcast BKN065 BKN070 OVC080 11.1 -1.6 42% 76.1 0.0
02 17:35 N 11 16.09 Overcast BKN065 BKN070 OVC080 11.3 -1.5 41% 76.07 0.0
02 17:15 N 15 16.09 Overcast SCT065 OVC080 11.7 -0.6 43% 76.07 0.0
02 16:35 N 15 16.09 Overcast OVC080 11.6 -1.1 42% 76.07 0.0
02 16:15 N 15 16.09 Overcast OVC075 11.7 -1 42% 76.07 0.0
02 15:55 N 17 16.09 Overcast OVC075 11.6 -2 39% 76.1 0.0
02 15:35 NW 17 16.09 Overcast OVC075 11.9 -2.3 37% 76.1 0.0
02 15:15 W 15 16.09 Overcast OVC075 11.8 -2 38% 76.15 0.0
02 14:35 W 17 16.09 Overcast OVC075 11.7 -2.2 38% 76.17 0.0
02 14:15 W 17 G 28 16.09 Overcast BKN060 OVC075 12 -1.7 39% 76.17 0.0
02 13:55 NW 9 16.09 Overcast BKN070 OVC075 11.4 -2.1 11.7 6 39% 76.2 0.0
02 13:35 NW 11 16.09 Overcast OVC070 11.6 -2.6 37% 76.2 0.0
02 13:15 NW 7 16.09 Overcast OVC060 11.4 -1.5 41% 76.2 0.0
02 12:55 W 13 16.09 Overcast OVC060 11.1 -1.7 41% 76.2 0.0
02 12:35 NW 17 G 26 16.09 Overcast OVC060 10.9 -1.9 41% 76.23 0.0
02 12:15 W 15 16.09 Overcast OVC060 10.8 -1.1 44% 76.23 0.0
02 11:55 NW 19 16.09 Mostly Cloudy BKN060 10.8 -1.1 44% 76.25 0.0
02 11:35 NW 13 16.09 Mostly Cloudy SCT048 BKN060 10.9 -0.7 45% 76.25 0.0
02 11:15 NW 9 16.09 Overcast OVC050 10.2 -0.7 47% 76.25 0.0
02 10:55 W 7 16.09 Overcast OVC050 9.8 -1.1 47% 9 76.25 0.0
02 10:35 N 9 16.09 Overcast BKN042 OVC055 9.7 0.3 52% 9 76.25 0.0
02 10:15 SW 7 16.09 Overcast BKN040 OVC048 9.1 -0.1 53% 8 76.25 0.0
02 09:55 NE 7 16.09 Mostly Cloudy BKN042 BKN050 9.1 0.6 56% 8 76.25 0.0
02 09:35 NE 9 16.09 Fair CLR 8 0.3 59% 7 76.25 0.0
02 08:55 N 7 16.09 Partly Cloudy SCT033 7 0.3 63% 6 76.28 0.0
02 08:35 N 9 16.09 Mostly Cloudy BKN031 7.5 0.6 62% 6 76.3 0.0
02 08:15 NE 9 16.09 Overcast OVC031 6.8 1.3 68% 5 76.28 0.0
02 07:55 N 6 16.09 Mostly Cloudy BKN033 6 0.4 8.1 3.5 68% 76.3 0.0
02 07:35 E 7 16.09 Partly Cloudy SCT033 5.6 0.8 72% 4 76.3 0.0
02 07:15 Calm 16.09 Partly Cloudy SCT037 4.9 0.9 76% 76.3 0.0
02 06:55 Calm 16.09 Overcast OVC039 4.7 0.6 75% 76.3 0.0
02 06:35 Calm 16.09 Mostly Cloudy BKN039 3.9 0.1 77% 76.3 0.0
02 06:15 Calm 16.09 Partly Cloudy SCT042 4.5 -0.1 72% 76.3 0.0
02 05:55 Calm 16.09 Fair CLR 4.3 -0.2 73% 76.3 0.0
02 05:35 S 6 16.09 Fair CLR 5.2 -0.1 69% 76.28 0.0
02 05:15 Calm 16.09 Fair CLR 4.9 -0.1 70% 76.28 0.0
02 04:55 Calm 16.09 Fair CLR 5.9 -0.3 65% 76.28 0.0
02 04:35 NW 6 16.09 Partly Cloudy SCT041 6.2 -0.3 63% 76.28 0.0
02 04:15 NW 13 16.09 Fair CLR 6.2 -0.4 63% 4 76.28 0.0
02 03:55 NW 15 16.09 Fair CLR 6.4 -0.2 63% 4 76.25 0.0
02 03:35 NW 17 G 28 16.09 Fair CLR 6.7 0.2 64% 4 76.25 0.0
02 03:15 NW 17 16.09 Fair CLR 6.9 0.3 63% 4 76.25 0.0
02 02:55 NW 20 16.09 Partly Cloudy SCT039 7.2 0.2 61% 4 76.23 0.0
02 02:35 NW 15 16.09 Overcast OVC039 7.7 0.9 62% 5 76.25 0.0
02 02:15 W 22 G 30 16.09 Overcast OVC039 7.9 1.2 63% 5 76.25 0.0
02 01:55 W 28 16.09 Mostly Cloudy SCT041 BKN049 BKN090 8 1 12.5 8 62% 4 76.25 0.0
02 01:35 W 26 G 33 16.09 Mostly Cloudy BKN090 8.2 1.2 62% 5 76.25 0.0
02 01:15 NW 26 G 33 16.09 Mostly Cloudy BKN090 8.5 2 64% 5 76.25 0.0
02 00:55 NW 22 G 31 16.09 Overcast OVC090 8.6 2.7 67% 6 76.2 0.0
02 00:35 NW 26 16.09 Overcast OVC100 9.1 2.7 65% 6 76.23 0.0
02 00:15 NW 24 16.09 Overcast OVC100 9.5 2.4 62% 7 76.2 0.0
01 23:55 NW 6 16.09 Mostly Cloudy SCT075 BKN100 9.3 2.6 63% 76.2 0.0
01 23:35 W 13 16.09 Mostly Cloudy SCT060 BKN075 BKN120 9.6 2.6 62% 8 76.2 0.0
01 23:15 NW 15 16.09 Overcast BKN055 BKN075 OVC080 10 3 62% 8 76.17 0.0
01 22:55 W 20 16.09 Overcast SCT032 BKN070 OVC080 10.3 3.6 63% 76.17 0.0
01 22:35 W 22 G 31 16.09 Overcast BKN036 BKN050 OVC080 10.8 4.1 64% 76.17 0.0
01 22:15 SW 13 16.09 Overcast SCT038 SCT046 OVC080 10.9 3.7 61% 76.15 0.0
01 21:55 SW 13 16.09 Overcast OVC080 11 3.5 60% 76.12 0.0
01 21:35 SW 6 16.09 Overcast OVC070 11.1 3.2 59% 76.12 0.0
01 21:15 W 20 G 31 16.09 Overcast BKN060 OVC080 11.3 3.5 59% 76.12 0.0
01 20:55 SW 15 16.09 Overcast SCT037 OVC060 11.5 3.6 59% 76.07 0.0
01 20:35 NW 9 16.09 Overcast SCT037 BKN060 OVC110 11.8 4 59% 76.05 0.0
01 20:15 NE 13 16.09 Mostly Cloudy SCT100 BKN120 12 3.6 57% 76 0.0
01 19:55 NW 28 G 39 16.09 Mostly Cloudy BKN090 BKN120 12.7 3.5 19.3 12.5 54% 75.97 0.0
01 19:35 NW 22 G 30 16.09 Overcast OVC090 14.8 1.7 41% 75.92 0.0
01 19:15 NW 26 G 41 16.09 Overcast OVC090 16.1 1.1 36% 75.87 0.0
01 18:55 NW 19 G 26 16.09 Overcast OVC090 16.6 0.2 33% 75.84 0.0
01 18:35 Calm 16.09 Overcast OVC090 16.5 1.7 37% 75.82 0.0
01 18:15 Calm 16.09 Overcast OVC100 16 3 42% 75.82 0.0
01 17:55 Calm 16.09 Overcast OVC100 16.4 1.3 36% 75.82 0.0
01 17:35 S 6 16.09 Overcast OVC100 16.7 1.2 35% 75.79 0.0
01 17:15 S 7 16.09 Overcast SCT070 OVC100 17 1.3 35% 75.82 0.0
01 16:55 S 11 16.09 Overcast SCT060 BKN070 OVC090 17.2 1.5 35% 75.82 0.0
01 16:35 W 22 G 30 16.09 Overcast SCT060 SCT070 OVC090 17.3 -0.1 31% 75.82 0.0
01 16:15 SW 15 16.09 Overcast SCT070 OVC090 17.6 0.9 33% 75.82 0.0
01 15:55 SW 24 G 33 16.09 Overcast SCT060 BKN070 OVC090 17.4 0.6 32% 75.84 0.0
01 15:35 SW 15 16.09 Overcast SCT070 OVC090 17.7 0.6 32% 75.84 0.0
01 15:15 SW 22 16.09 Mostly Cloudy SCT070 BKN080 BKN110 18.9 1.4 31% 75.84 0.0
01 14:55 SW 15 16.09 Partly Cloudy SCT080 SCT090 SCT120 18.7 1.1 31% 75.87 0.0
01 14:35 S 19 G 37 16.09 Mostly Cloudy SCT080 SCT090 BKN120 18.3 1.5 33% 75.9 0.0
01 14:15 S 15 16.09 Partly Cloudy SCT120 17.8 0.7 32% 75.92 0.0
01 13:55 S 13 G 28 16.09 Fair CLR 17.3 1.1 17.5 3.3 34% 75.95 0.0
01 13:35 S 11 16.09 Partly Cloudy SCT120 16.8 1.4 36% 75.97 0.0
01 13:15 S 15 16.09 Fair CLR 16.4 2 38% 76 0.0
Date Time (edt) Wind (kph) Vis. (km) Weather Sky Cond. Air Dwpt Max. Min. Relative Humidity Wind Chill (°C) Heat Index (°C) altimeter (cm) sea level (mb) 1 hr 3 hr 6 hr
6 hour
Temperature (ºC) Pressure Precipitation (cm)